sensor_id;sensor_type;location;lat;lon;timestamp;P1;durP1;ratioP1;P2;durP2;ratioP2
50555;SDS011;36508;52.512;13.450;2023-05-13T00:00:46;17.67;;;15.77;;
50555;SDS011;36508;52.512;13.450;2023-05-13T00:03:12;12.07;;;6.90;;
50555;SDS011;36508;52.512;13.450;2023-05-13T00:05:37;7.27;;;5.90;;
50555;SDS011;36508;52.512;13.450;2023-05-13T00:08:04;8.57;;;6.83;;
50555;SDS011;36508;52.512;13.450;2023-05-13T00:10:31;9.83;;;5.87;;
50555;SDS011;36508;52.512;13.450;2023-05-13T00:12:58;6.30;;;5.70;;
50555;SDS011;36508;52.512;13.450;2023-05-13T00:15:23;7.63;;;6.93;;
50555;SDS011;36508;52.512;13.450;2023-05-13T00:17:49;14.23;;;6.00;;
50555;SDS011;36508;52.512;13.450;2023-05-13T00:20:15;5.77;;;5.37;;
50555;SDS011;36508;52.512;13.450;2023-05-13T00:22:41;6.67;;;6.17;;
50555;SDS011;36508;52.512;13.450;2023-05-13T00:25:06;7.00;;;6.30;;
50555;SDS011;36508;52.512;13.450;2023-05-13T00:27:32;5.93;;;5.40;;
50555;SDS011;36508;52.512;13.450;2023-05-13T00:29:59;6.93;;;5.30;;
50555;SDS011;36508;52.512;13.450;2023-05-13T00:32:24;12.13;;;7.10;;
50555;SDS011;36508;52.512;13.450;2023-05-13T00:34:50;6.57;;;5.97;;
50555;SDS011;36508;52.512;13.450;2023-05-13T00:37:16;6.30;;;5.50;;
50555;SDS011;36508;52.512;13.450;2023-05-13T00:39:42;6.47;;;5.87;;
50555;SDS011;36508;52.512;13.450;2023-05-13T00:42:08;5.37;;;4.90;;
50555;SDS011;36508;52.512;13.450;2023-05-13T00:44:36;9.57;;;8.47;;
50555;SDS011;36508;52.512;13.450;2023-05-13T00:47:03;10.80;;;9.80;;
50555;SDS011;36508;52.512;13.450;2023-05-13T00:49:34;8.47;;;7.70;;
50555;SDS011;36508;52.512;13.450;2023-05-13T00:52:00;9.43;;;6.77;;
50555;SDS011;36508;52.512;13.450;2023-05-13T00:54:27;7.93;;;6.20;;
50555;SDS011;36508;52.512;13.450;2023-05-13T00:56:53;6.03;;;5.60;;
50555;SDS011;36508;52.512;13.450;2023-05-13T00:59:24;9.50;;;5.87;;
50555;SDS011;36508;52.512;13.450;2023-05-13T01:04:49;6.23;;;5.63;;
50555;SDS011;36508;52.512;13.450;2023-05-13T01:10:14;7.30;;;6.30;;
50555;SDS011;36508;52.512;13.450;2023-05-13T01:12:45;7.33;;;6.40;;
50555;SDS011;36508;52.512;13.450;2023-05-13T01:15:17;6.50;;;6.00;;
50555;SDS011;36508;52.512;13.450;2023-05-13T01:20:24;7.53;;;6.90;;
50555;SDS011;36508;52.512;13.450;2023-05-13T01:22:51;8.97;;;6.80;;
50555;SDS011;36508;52.512;13.450;2023-05-13T01:25:17;7.30;;;6.60;;
50555;SDS011;36508;52.512;13.450;2023-05-13T01:27:42;9.13;;;5.73;;
50555;SDS011;36508;52.512;13.450;2023-05-13T01:30:08;8.60;;;7.80;;
50555;SDS011;36508;52.512;13.450;2023-05-13T01:32:35;7.37;;;6.10;;
50555;SDS011;36508;52.512;13.450;2023-05-13T01:35:02;7.13;;;6.10;;
50555;SDS011;36508;52.512;13.450;2023-05-13T01:37:29;5.80;;;4.83;;
50555;SDS011;36508;52.512;13.450;2023-05-13T01:39:55;10.23;;;9.10;;
50555;SDS011;36508;52.512;13.450;2023-05-13T01:42:23;10.90;;;9.73;;
50555;SDS011;36508;52.512;13.450;2023-05-13T01:44:50;11.37;;;7.37;;
50555;SDS011;36508;52.512;13.450;2023-05-13T01:47:17;9.20;;;6.53;;
50555;SDS011;36508;52.512;13.450;2023-05-13T01:49:43;6.83;;;5.53;;
50555;SDS011;36508;52.512;13.450;2023-05-13T01:52:08;5.80;;;5.40;;
50555;SDS011;36508;52.512;13.450;2023-05-13T01:54:34;10.77;;;7.03;;
50555;SDS011;36508;52.512;13.450;2023-05-13T01:56:59;11.03;;;6.10;;
50555;SDS011;36508;52.512;13.450;2023-05-13T01:59:25;7.53;;;6.43;;
50555;SDS011;36508;52.512;13.450;2023-05-13T02:01:50;6.27;;;5.60;;
50555;SDS011;36508;52.512;13.450;2023-05-13T02:04:16;8.80;;;6.27;;
50555;SDS011;36508;52.512;13.450;2023-05-13T02:06:41;7.13;;;6.53;;
50555;SDS011;36508;52.512;13.450;2023-05-13T02:09:07;6.63;;;6.00;;
50555;SDS011;36508;52.512;13.450;2023-05-13T02:11:33;7.13;;;6.20;;
50555;SDS011;36508;52.512;13.450;2023-05-13T02:13:59;13.80;;;6.67;;
50555;SDS011;36508;52.512;13.450;2023-05-13T02:16:25;8.20;;;6.03;;
50555;SDS011;36508;52.512;13.450;2023-05-13T02:18:50;7.60;;;6.83;;
50555;SDS011;36508;52.512;13.450;2023-05-13T02:21:16;8.83;;;6.27;;
50555;SDS011;36508;52.512;13.450;2023-05-13T02:23:41;13.40;;;6.70;;
50555;SDS011;36508;52.512;13.450;2023-05-13T02:26:07;7.07;;;6.57;;
50555;SDS011;36508;52.512;13.450;2023-05-13T02:28:32;11.00;;;9.47;;
50555;SDS011;36508;52.512;13.450;2023-05-13T02:30:58;13.87;;;8.77;;
50555;SDS011;36508;52.512;13.450;2023-05-13T02:33:24;7.47;;;6.83;;
50555;SDS011;36508;52.512;13.450;2023-05-13T02:35:50;8.50;;;7.23;;
50555;SDS011;36508;52.512;13.450;2023-05-13T02:38:15;6.97;;;6.33;;
50555;SDS011;36508;52.512;13.450;2023-05-13T02:40:41;6.53;;;5.97;;
50555;SDS011;36508;52.512;13.450;2023-05-13T02:43:06;8.83;;;5.93;;
50555;SDS011;36508;52.512;13.450;2023-05-13T02:45:32;7.80;;;6.20;;
50555;SDS011;36508;52.512;13.450;2023-05-13T02:47:57;7.47;;;6.87;;
50555;SDS011;36508;52.512;13.450;2023-05-13T02:50:23;9.30;;;5.70;;
50555;SDS011;36508;52.512;13.450;2023-05-13T02:52:49;8.53;;;6.37;;
50555;SDS011;36508;52.512;13.450;2023-05-13T02:55:14;7.37;;;6.67;;
50555;SDS011;36508;52.512;13.450;2023-05-13T02:57:41;10.00;;;9.03;;
50555;SDS011;36508;52.512;13.450;2023-05-13T03:00:07;7.27;;;6.60;;
50555;SDS011;36508;52.512;13.450;2023-05-13T03:02:33;6.23;;;5.63;;
50555;SDS011;36508;52.512;13.450;2023-05-13T03:04:59;7.30;;;6.40;;
50555;SDS011;36508;52.512;13.450;2023-05-13T03:07:25;9.23;;;6.63;;
50555;SDS011;36508;52.512;13.450;2023-05-13T03:09:51;6.67;;;6.10;;
50555;SDS011;36508;52.512;13.450;2023-05-13T03:12:16;6.80;;;6.20;;
50555;SDS011;36508;52.512;13.450;2023-05-13T03:14:42;7.90;;;6.30;;
50555;SDS011;36508;52.512;13.450;2023-05-13T03:17:08;9.70;;;6.57;;
50555;SDS011;36508;52.512;13.450;2023-05-13T03:19:35;15.53;;;6.70;;
50555;SDS011;36508;52.512;13.450;2023-05-13T03:22:02;6.63;;;6.20;;
50555;SDS011;36508;52.512;13.450;2023-05-13T03:24:27;8.10;;;7.37;;
50555;SDS011;36508;52.512;13.450;2023-05-13T03:26:53;5.83;;;5.43;;
50555;SDS011;36508;52.512;13.450;2023-05-13T03:29:19;11.53;;;6.40;;
50555;SDS011;36508;52.512;13.450;2023-05-13T03:31:45;7.00;;;6.50;;
50555;SDS011;36508;52.512;13.450;2023-05-13T03:34:11;6.00;;;5.60;;
50555;SDS011;36508;52.512;13.450;2023-05-13T03:36:36;7.13;;;6.43;;
50555;SDS011;36508;52.512;13.450;2023-05-13T03:39:02;6.77;;;5.80;;
50555;SDS011;36508;52.512;13.450;2023-05-13T03:41:28;7.57;;;6.87;;
50555;SDS011;36508;52.512;13.450;2023-05-13T03:43:53;6.83;;;6.37;;
50555;SDS011;36508;52.512;13.450;2023-05-13T03:46:22;6.80;;;6.20;;
50555;SDS011;36508;52.512;13.450;2023-05-13T03:48:48;6.90;;;6.30;;
50555;SDS011;36508;52.512;13.450;2023-05-13T03:51:13;9.33;;;8.03;;
50555;SDS011;36508;52.512;13.450;2023-05-13T03:53:39;7.03;;;6.37;;
50555;SDS011;36508;52.512;13.450;2023-05-13T03:56:05;7.93;;;6.43;;
50555;SDS011;36508;52.512;13.450;2023-05-13T03:58:31;13.07;;;8.00;;
50555;SDS011;36508;52.512;13.450;2023-05-13T04:00:57;10.60;;;5.57;;
50555;SDS011;36508;52.512;13.450;2023-05-13T04:03:22;7.13;;;5.40;;
50555;SDS011;36508;52.512;13.450;2023-05-13T04:05:48;7.53;;;6.83;;
50555;SDS011;36508;52.512;13.450;2023-05-13T04:08:14;8.30;;;6.20;;
50555;SDS011;36508;52.512;13.450;2023-05-13T04:10:40;6.30;;;5.80;;
50555;SDS011;36508;52.512;13.450;2023-05-13T04:13:06;6.90;;;6.23;;
50555;SDS011;36508;52.512;13.450;2023-05-13T04:15:32;6.80;;;6.07;;
50555;SDS011;36508;52.512;13.450;2023-05-13T04:17:57;6.40;;;5.90;;
50555;SDS011;36508;52.512;13.450;2023-05-13T04:20:23;7.63;;;6.77;;
50555;SDS011;36508;52.512;13.450;2023-05-13T04:22:49;6.60;;;5.97;;
50555;SDS011;36508;52.512;13.450;2023-05-13T04:25:15;6.40;;;5.90;;
50555;SDS011;36508;52.512;13.450;2023-05-13T04:27:41;5.83;;;5.43;;
50555;SDS011;36508;52.512;13.450;2023-05-13T04:30:07;5.90;;;5.40;;
50555;SDS011;36508;52.512;13.450;2023-05-13T04:32:33;6.40;;;5.53;;
50555;SDS011;36508;52.512;13.450;2023-05-13T04:34:59;10.10;;;6.33;;
50555;SDS011;36508;52.512;13.450;2023-05-13T04:37:24;6.20;;;5.60;;
50555;SDS011;36508;52.512;13.450;2023-05-13T04:39:51;7.03;;;6.37;;
50555;SDS011;36508;52.512;13.450;2023-05-13T04:42:17;7.40;;;5.20;;
50555;SDS011;36508;52.512;13.450;2023-05-13T04:44:42;6.30;;;5.80;;
50555;SDS011;36508;52.512;13.450;2023-05-13T04:47:08;6.43;;;5.93;;
50555;SDS011;36508;52.512;13.450;2023-05-13T04:49:35;7.40;;;6.70;;
50555;SDS011;36508;52.512;13.450;2023-05-13T04:52:00;5.90;;;5.40;;
50555;SDS011;36508;52.512;13.450;2023-05-13T04:54:27;6.67;;;6.00;;
50555;SDS011;36508;52.512;13.450;2023-05-13T04:56:53;10.20;;;6.23;;
50555;SDS011;36508;52.512;13.450;2023-05-13T04:59:18;6.47;;;5.97;;
50555;SDS011;36508;52.512;13.450;2023-05-13T05:01:44;9.10;;;6.87;;
50555;SDS011;36508;52.512;13.450;2023-05-13T05:04:10;8.90;;;6.00;;
50555;SDS011;36508;52.512;13.450;2023-05-13T05:06:36;7.20;;;6.40;;
50555;SDS011;36508;52.512;13.450;2023-05-13T05:09:02;8.00;;;7.40;;
50555;SDS011;36508;52.512;13.450;2023-05-13T05:11:28;7.97;;;6.27;;
50555;SDS011;36508;52.512;13.450;2023-05-13T05:13:53;6.40;;;5.87;;
50555;SDS011;36508;52.512;13.450;2023-05-13T05:16:19;7.03;;;6.40;;
50555;SDS011;36508;52.512;13.450;2023-05-13T05:18:45;6.43;;;6.03;;
50555;SDS011;36508;52.512;13.450;2023-05-13T05:21:11;7.30;;;6.77;;
50555;SDS011;36508;52.512;13.450;2023-05-13T05:23:36;8.43;;;5.60;;
50555;SDS011;36508;52.512;13.450;2023-05-13T05:26:02;6.40;;;5.80;;
50555;SDS011;36508;52.512;13.450;2023-05-13T05:28:28;10.10;;;5.80;;
50555;SDS011;36508;52.512;13.450;2023-05-13T05:30:54;5.80;;;5.30;;
50555;SDS011;36508;52.512;13.450;2023-05-13T05:33:20;5.80;;;5.40;;
50555;SDS011;36508;52.512;13.450;2023-05-13T05:35:46;5.30;;;4.90;;
50555;SDS011;36508;52.512;13.450;2023-05-13T05:38:12;6.40;;;5.80;;
50555;SDS011;36508;52.512;13.450;2023-05-13T05:40:41;6.40;;;5.90;;
50555;SDS011;36508;52.512;13.450;2023-05-13T05:43:07;5.20;;;4.80;;
50555;SDS011;36508;52.512;13.450;2023-05-13T05:45:35;5.70;;;5.40;;
50555;SDS011;36508;52.512;13.450;2023-05-13T05:48:01;5.40;;;5.00;;
50555;SDS011;36508;52.512;13.450;2023-05-13T05:50:27;6.00;;;5.50;;
50555;SDS011;36508;52.512;13.450;2023-05-13T05:52:53;6.27;;;5.50;;
50555;SDS011;36508;52.512;13.450;2023-05-13T05:55:19;5.70;;;5.30;;
50555;SDS011;36508;52.512;13.450;2023-05-13T05:57:45;7.57;;;5.70;;
50555;SDS011;36508;52.512;13.450;2023-05-13T06:00:11;6.63;;;4.57;;
50555;SDS011;36508;52.512;13.450;2023-05-13T06:02:37;6.30;;;5.80;;
50555;SDS011;36508;52.512;13.450;2023-05-13T06:05:03;5.97;;;5.43;;
50555;SDS011;36508;52.512;13.450;2023-05-13T06:07:29;5.20;;;4.70;;
50555;SDS011;36508;52.512;13.450;2023-05-13T06:09:54;5.30;;;5.00;;
50555;SDS011;36508;52.512;13.450;2023-05-13T06:12:20;6.10;;;5.43;;
50555;SDS011;36508;52.512;13.450;2023-05-13T06:14:46;6.20;;;5.47;;
50555;SDS011;36508;52.512;13.450;2023-05-13T06:17:12;6.03;;;5.53;;
50555;SDS011;36508;52.512;13.450;2023-05-13T06:19:39;9.10;;;5.20;;
50555;SDS011;36508;52.512;13.450;2023-05-13T06:22:06;9.60;;;5.77;;
50555;SDS011;36508;52.512;13.450;2023-05-13T06:24:32;7.23;;;5.80;;
50555;SDS011;36508;52.512;13.450;2023-05-13T06:26:58;7.30;;;6.10;;
50555;SDS011;36508;52.512;13.450;2023-05-13T06:29:24;5.23;;;4.90;;
50555;SDS011;36508;52.512;13.450;2023-05-13T06:31:50;6.33;;;5.50;;
50555;SDS011;36508;52.512;13.450;2023-05-13T06:34:15;5.53;;;5.03;;
50555;SDS011;36508;52.512;13.450;2023-05-13T06:36:42;6.03;;;5.50;;
50555;SDS011;36508;52.512;13.450;2023-05-13T06:39:08;5.20;;;4.80;;
50555;SDS011;36508;52.512;13.450;2023-05-13T06:41:35;8.77;;;5.60;;
50555;SDS011;36508;52.512;13.450;2023-05-13T06:44:01;6.60;;;5.57;;
50555;SDS011;36508;52.512;13.450;2023-05-13T06:46:27;5.23;;;4.60;;
50555;SDS011;36508;52.512;13.450;2023-05-13T06:48:52;6.50;;;6.10;;
50555;SDS011;36508;52.512;13.450;2023-05-13T06:51:20;4.20;;;3.93;;
50555;SDS011;36508;52.512;13.450;2023-05-13T06:53:46;5.60;;;5.30;;
50555;SDS011;36508;52.512;13.450;2023-05-13T06:56:12;4.40;;;4.10;;
50555;SDS011;36508;52.512;13.450;2023-05-13T06:58:37;7.93;;;5.20;;
50555;SDS011;36508;52.512;13.450;2023-05-13T07:01:03;4.67;;;4.37;;
50555;SDS011;36508;52.512;13.450;2023-05-13T07:03:28;8.47;;;4.73;;
50555;SDS011;36508;52.512;13.450;2023-05-13T07:05:54;8.00;;;4.80;;
50555;SDS011;36508;52.512;13.450;2023-05-13T07:08:20;6.00;;;5.07;;
50555;SDS011;36508;52.512;13.450;2023-05-13T07:10:45;3.60;;;3.40;;
50555;SDS011;36508;52.512;13.450;2023-05-13T07:13:11;4.30;;;4.10;;
50555;SDS011;36508;52.512;13.450;2023-05-13T07:15:37;5.27;;;4.73;;
50555;SDS011;36508;52.512;13.450;2023-05-13T07:18:02;7.50;;;4.07;;
50555;SDS011;36508;52.512;13.450;2023-05-13T07:20:28;7.10;;;4.50;;
50555;SDS011;36508;52.512;13.450;2023-05-13T07:22:54;4.70;;;4.40;;
50555;SDS011;36508;52.512;13.450;2023-05-13T07:25:20;5.20;;;4.80;;
50555;SDS011;36508;52.512;13.450;2023-05-13T07:27:45;7.63;;;6.93;;
50555;SDS011;36508;52.512;13.450;2023-05-13T07:30:11;4.47;;;4.07;;
50555;SDS011;36508;52.512;13.450;2023-05-13T07:32:38;6.27;;;3.30;;
50555;SDS011;36508;52.512;13.450;2023-05-13T07:35:04;8.83;;;4.77;;
50555;SDS011;36508;52.512;13.450;2023-05-13T07:37:30;4.97;;;4.53;;
50555;SDS011;36508;52.512;13.450;2023-05-13T07:39:56;4.60;;;3.90;;
50555;SDS011;36508;52.512;13.450;2023-05-13T07:42:21;5.93;;;5.37;;
50555;SDS011;36508;52.512;13.450;2023-05-13T07:44:47;6.30;;;4.13;;
50555;SDS011;36508;52.512;13.450;2023-05-13T07:47:12;9.63;;;6.40;;
50555;SDS011;36508;52.512;13.450;2023-05-13T07:49:38;4.23;;;3.30;;
50555;SDS011;36508;52.512;13.450;2023-05-13T07:52:04;4.20;;;4.00;;
50555;SDS011;36508;52.512;13.450;2023-05-13T07:54:30;4.33;;;4.03;;
50555;SDS011;36508;52.512;13.450;2023-05-13T07:56:55;5.70;;;4.00;;
50555;SDS011;36508;52.512;13.450;2023-05-13T07:59:21;4.47;;;4.10;;
50555;SDS011;36508;52.512;13.450;2023-05-13T08:01:47;3.80;;;3.60;;
50555;SDS011;36508;52.512;13.450;2023-05-13T08:04:13;4.47;;;4.00;;
50555;SDS011;36508;52.512;13.450;2023-05-13T08:06:38;11.13;;;5.10;;
50555;SDS011;36508;52.512;13.450;2023-05-13T08:09:04;4.47;;;4.17;;
50555;SDS011;36508;52.512;13.450;2023-05-13T08:11:30;4.40;;;4.10;;
50555;SDS011;36508;52.512;13.450;2023-05-13T08:13:56;8.83;;;4.00;;
50555;SDS011;36508;52.512;13.450;2023-05-13T08:16:21;3.80;;;3.40;;
50555;SDS011;36508;52.512;13.450;2023-05-13T08:18:47;4.50;;;4.10;;
50555;SDS011;36508;52.512;13.450;2023-05-13T08:21:13;5.47;;;5.07;;
50555;SDS011;36508;52.512;13.450;2023-05-13T08:23:38;4.60;;;4.40;;
50555;SDS011;36508;52.512;13.450;2023-05-13T08:26:04;5.13;;;4.73;;
50555;SDS011;36508;52.512;13.450;2023-05-13T08:28:29;5.40;;;4.27;;
50555;SDS011;36508;52.512;13.450;2023-05-13T08:30:55;4.47;;;4.17;;
50555;SDS011;36508;52.512;13.450;2023-05-13T08:33:29;4.50;;;4.20;;
50555;SDS011;36508;52.512;13.450;2023-05-13T08:35:55;3.77;;;3.47;;
50555;SDS011;36508;52.512;13.450;2023-05-13T08:38:21;7.30;;;4.60;;
50555;SDS011;36508;52.512;13.450;2023-05-13T08:40:46;6.97;;;3.77;;
50555;SDS011;36508;52.512;13.450;2023-05-13T08:43:14;6.27;;;4.10;;
50555;SDS011;36508;52.512;13.450;2023-05-13T08:45:40;7.30;;;4.90;;
50555;SDS011;36508;52.512;13.450;2023-05-13T08:48:15;5.37;;;4.87;;
50555;SDS011;36508;52.512;13.450;2023-05-13T08:50:43;4.83;;;4.43;;
50555;SDS011;36508;52.512;13.450;2023-05-13T08:53:10;6.50;;;4.93;;
50555;SDS011;36508;52.512;13.450;2023-05-13T08:55:37;5.60;;;5.10;;
50555;SDS011;36508;52.512;13.450;2023-05-13T08:58:04;8.20;;;4.90;;
50555;SDS011;36508;52.512;13.450;2023-05-13T09:00:30;4.90;;;4.60;;
50555;SDS011;36508;52.512;13.450;2023-05-13T09:02:58;4.30;;;3.97;;
50555;SDS011;36508;52.512;13.450;2023-05-13T09:05:24;4.43;;;4.23;;
50555;SDS011;36508;52.512;13.450;2023-05-13T09:07:50;5.50;;;5.10;;
50555;SDS011;36508;52.512;13.450;2023-05-13T09:10:16;7.20;;;4.63;;
50555;SDS011;36508;52.512;13.450;2023-05-13T09:15:17;6.50;;;5.57;;
50555;SDS011;36508;52.512;13.450;2023-05-13T09:17:47;11.30;;;5.10;;
50555;SDS011;36508;52.512;13.450;2023-05-13T09:20:17;4.50;;;4.10;;
50555;SDS011;36508;52.512;13.450;2023-05-13T09:22:47;4.90;;;4.50;;
50555;SDS011;36508;52.512;13.450;2023-05-13T09:25:18;7.10;;;4.77;;
50555;SDS011;36508;52.512;13.450;2023-05-13T09:27:49;4.83;;;4.53;;
50555;SDS011;36508;52.512;13.450;2023-05-13T09:30:19;4.10;;;3.67;;
50555;SDS011;36508;52.512;13.450;2023-05-13T09:33:02;7.97;;;4.17;;
50555;SDS011;36508;52.512;13.450;2023-05-13T09:35:35;4.10;;;3.80;;
50555;SDS011;36508;52.512;13.450;2023-05-13T09:38:10;7.63;;;4.40;;
50555;SDS011;36508;52.512;13.450;2023-05-13T09:40:40;7.83;;;3.50;;
50555;SDS011;36508;52.512;13.450;2023-05-13T09:43:13;6.40;;;4.37;;
50555;SDS011;36508;52.512;13.450;2023-05-13T09:45:39;6.43;;;5.40;;
50555;SDS011;36508;52.512;13.450;2023-05-13T09:48:05;10.57;;;6.57;;
50555;SDS011;36508;52.512;13.450;2023-05-13T09:50:32;5.33;;;3.50;;
50555;SDS011;36508;52.512;13.450;2023-05-13T09:53:13;5.03;;;4.00;;
50555;SDS011;36508;52.512;13.450;2023-05-13T09:58:40;3.60;;;3.40;;
50555;SDS011;36508;52.512;13.450;2023-05-13T10:01:16;7.20;;;4.40;;
50555;SDS011;36508;52.512;13.450;2023-05-13T10:03:43;3.67;;;3.30;;
50555;SDS011;36508;52.512;13.450;2023-05-13T10:06:09;6.20;;;3.07;;
50555;SDS011;36508;52.512;13.450;2023-05-13T10:08:44;10.30;;;7.53;;
50555;SDS011;36508;52.512;13.450;2023-05-13T10:11:17;5.10;;;3.87;;
50555;SDS011;36508;52.512;13.450;2023-05-13T10:13:48;5.47;;;3.20;;
50555;SDS011;36508;52.512;13.450;2023-05-13T10:16:16;9.10;;;4.00;;
50555;SDS011;36508;52.512;13.450;2023-05-13T10:18:43;5.67;;;4.73;;
50555;SDS011;36508;52.512;13.450;2023-05-13T10:21:09;4.70;;;4.27;;
50555;SDS011;36508;52.512;13.450;2023-05-13T10:23:37;3.83;;;3.43;;
50555;SDS011;36508;52.512;13.450;2023-05-13T10:26:03;4.70;;;3.10;;
50555;SDS011;36508;52.512;13.450;2023-05-13T10:28:30;3.83;;;3.63;;
50555;SDS011;36508;52.512;13.450;2023-05-13T10:30:57;5.20;;;4.80;;
50555;SDS011;36508;52.512;13.450;2023-05-13T10:33:34;5.53;;;4.13;;
50555;SDS011;36508;52.512;13.450;2023-05-13T10:36:07;5.23;;;4.83;;
50555;SDS011;36508;52.512;13.450;2023-05-13T10:39:14;5.00;;;4.70;;
50555;SDS011;36508;52.512;13.450;2023-05-13T10:44:53;5.17;;;4.43;;
50555;SDS011;36508;52.512;13.450;2023-05-13T10:47:19;5.73;;;3.97;;
50555;SDS011;36508;52.512;13.450;2023-05-13T10:49:51;14.63;;;4.37;;
50555;SDS011;36508;52.512;13.450;2023-05-13T10:52:19;9.00;;;5.27;;
50555;SDS011;36508;52.512;13.450;2023-05-13T10:54:56;4.30;;;4.00;;
50555;SDS011;36508;52.512;13.450;2023-05-13T10:57:34;4.57;;;4.27;;
50555;SDS011;36508;52.512;13.450;2023-05-13T11:00:14;4.87;;;3.53;;
50555;SDS011;36508;52.512;13.450;2023-05-13T11:02:40;4.10;;;3.80;;
50555;SDS011;36508;52.512;13.450;2023-05-13T11:05:06;3.00;;;2.90;;
50555;SDS011;36508;52.512;13.450;2023-05-13T11:07:36;5.27;;;4.37;;
50555;SDS011;36508;52.512;13.450;2023-05-13T11:10:03;4.57;;;3.90;;
50555;SDS011;36508;52.512;13.450;2023-05-13T11:18:18;7.30;;;6.50;;
50555;SDS011;36508;52.512;13.450;2023-05-13T11:21:00;5.10;;;4.70;;
50555;SDS011;36508;52.512;13.450;2023-05-13T11:23:31;4.70;;;4.27;;
50555;SDS011;36508;52.512;13.450;2023-05-13T11:31:49;10.90;;;4.80;;
50555;SDS011;36508;52.512;13.450;2023-05-13T11:34:21;6.53;;;4.20;;
50555;SDS011;36508;52.512;13.450;2023-05-13T11:36:49;5.30;;;3.40;;
50555;SDS011;36508;52.512;13.450;2023-05-13T11:39:17;3.70;;;3.40;;
50555;SDS011;36508;52.512;13.450;2023-05-13T11:41:46;4.10;;;3.83;;
50555;SDS011;36508;52.512;13.450;2023-05-13T11:44:17;10.03;;;4.80;;
50555;SDS011;36508;52.512;13.450;2023-05-13T11:46:57;5.30;;;3.43;;
50555;SDS011;36508;52.512;13.450;2023-05-13T11:49:44;6.20;;;4.87;;
50555;SDS011;36508;52.512;13.450;2023-05-13T11:54:40;5.03;;;3.07;;
50555;SDS011;36508;52.512;13.450;2023-05-13T11:59:55;4.30;;;4.00;;
50555;SDS011;36508;52.512;13.450;2023-05-13T12:02:23;5.40;;;3.77;;
50555;SDS011;36508;52.512;13.450;2023-05-13T12:04:59;3.70;;;3.50;;
50555;SDS011;36508;52.512;13.450;2023-05-13T12:07:27;5.27;;;3.60;;
50555;SDS011;36508;52.512;13.450;2023-05-13T12:09:54;6.97;;;4.00;;
50555;SDS011;36508;52.512;13.450;2023-05-13T12:12:21;8.50;;;3.83;;
50555;SDS011;36508;52.512;13.450;2023-05-13T12:14:54;6.10;;;4.33;;
50555;SDS011;36508;52.512;13.450;2023-05-13T12:17:24;8.00;;;4.67;;
50555;SDS011;36508;52.512;13.450;2023-05-13T12:22:48;4.60;;;3.20;;
50555;SDS011;36508;52.512;13.450;2023-05-13T12:28:30;6.60;;;3.50;;
50555;SDS011;36508;52.512;13.450;2023-05-13T12:31:03;7.23;;;4.70;;
50555;SDS011;36508;52.512;13.450;2023-05-13T12:33:40;5.00;;;3.60;;
50555;SDS011;36508;52.512;13.450;2023-05-13T12:36:25;6.13;;;3.50;;
50555;SDS011;36508;52.512;13.450;2023-05-13T12:39:03;5.17;;;3.27;;
50555;SDS011;36508;52.512;13.450;2023-05-13T12:41:34;8.30;;;5.60;;
50555;SDS011;36508;52.512;13.450;2023-05-13T12:44:03;4.20;;;3.90;;
50555;SDS011;36508;52.512;13.450;2023-05-13T12:49:52;6.90;;;3.60;;
50555;SDS011;36508;52.512;13.450;2023-05-13T12:52:24;19.50;;;5.33;;
50555;SDS011;36508;52.512;13.450;2023-05-13T12:54:50;3.57;;;3.37;;
50555;SDS011;36508;52.512;13.450;2023-05-13T12:57:19;3.67;;;3.47;;
50555;SDS011;36508;52.512;13.450;2023-05-13T12:59:45;3.77;;;3.50;;
50555;SDS011;36508;52.512;13.450;2023-05-13T13:02:21;5.67;;;4.30;;
50555;SDS011;36508;52.512;13.450;2023-05-13T13:04:49;3.97;;;3.70;;
50555;SDS011;36508;52.512;13.450;2023-05-13T13:07:15;3.17;;;2.87;;
50555;SDS011;36508;52.512;13.450;2023-05-13T13:09:41;18.10;;;6.07;;
50555;SDS011;36508;52.512;13.450;2023-05-13T13:12:06;5.13;;;4.63;;
50555;SDS011;36508;52.512;13.450;2023-05-13T13:14:32;5.73;;;4.40;;
50555;SDS011;36508;52.512;13.450;2023-05-13T13:16:58;6.20;;;5.60;;
50555;SDS011;36508;52.512;13.450;2023-05-13T13:19:24;5.63;;;4.10;;
50555;SDS011;36508;52.512;13.450;2023-05-13T13:21:50;3.97;;;3.77;;
50555;SDS011;36508;52.512;13.450;2023-05-13T13:24:15;4.03;;;3.73;;
50555;SDS011;36508;52.512;13.450;2023-05-13T13:26:44;8.53;;;4.67;;
50555;SDS011;36508;52.512;13.450;2023-05-13T13:29:12;6.10;;;4.77;;
50555;SDS011;36508;52.512;13.450;2023-05-13T13:31:38;6.10;;;4.50;;
50555;SDS011;36508;52.512;13.450;2023-05-13T13:34:04;6.60;;;5.03;;
50555;SDS011;36508;52.512;13.450;2023-05-13T13:36:30;3.70;;;3.50;;
50555;SDS011;36508;52.512;13.450;2023-05-13T13:38:56;6.90;;;3.20;;
50555;SDS011;36508;52.512;13.450;2023-05-13T13:41:22;4.00;;;3.23;;
50555;SDS011;36508;52.512;13.450;2023-05-13T13:43:50;7.27;;;4.63;;
50555;SDS011;36508;52.512;13.450;2023-05-13T13:46:16;8.40;;;6.57;;
50555;SDS011;36508;52.512;13.450;2023-05-13T13:48:42;5.23;;;3.60;;
50555;SDS011;36508;52.512;13.450;2023-05-13T13:51:08;8.93;;;3.57;;
50555;SDS011;36508;52.512;13.450;2023-05-13T13:53:34;3.73;;;3.43;;
50555;SDS011;36508;52.512;13.450;2023-05-13T13:56:02;6.27;;;3.50;;
50555;SDS011;36508;52.512;13.450;2023-05-13T13:58:28;3.70;;;3.43;;
50555;SDS011;36508;52.512;13.450;2023-05-13T14:00:55;6.40;;;4.33;;
50555;SDS011;36508;52.512;13.450;2023-05-13T14:03:21;5.80;;;3.90;;
50555;SDS011;36508;52.512;13.450;2023-05-13T14:05:47;12.43;;;6.20;;
50555;SDS011;36508;52.512;13.450;2023-05-13T14:08:12;5.30;;;4.57;;
50555;SDS011;36508;52.512;13.450;2023-05-13T14:10:38;4.10;;;3.80;;
50555;SDS011;36508;52.512;13.450;2023-05-13T14:13:04;6.03;;;4.03;;
50555;SDS011;36508;52.512;13.450;2023-05-13T14:15:30;4.50;;;4.10;;
50555;SDS011;36508;52.512;13.450;2023-05-13T14:17:56;4.07;;;3.77;;
50555;SDS011;36508;52.512;13.450;2023-05-13T14:20:23;4.73;;;4.23;;
50555;SDS011;36508;52.512;13.450;2023-05-13T14:22:49;5.63;;;5.20;;
50555;SDS011;36508;52.512;13.450;2023-05-13T14:25:15;7.23;;;3.83;;
50555;SDS011;36508;52.512;13.450;2023-05-13T14:27:40;4.50;;;4.10;;
50555;SDS011;36508;52.512;13.450;2023-05-13T14:30:06;4.13;;;3.90;;
50555;SDS011;36508;52.512;13.450;2023-05-13T14:32:32;4.93;;;4.40;;
50555;SDS011;36508;52.512;13.450;2023-05-13T14:34:58;4.90;;;4.60;;
50555;SDS011;36508;52.512;13.450;2023-05-13T14:37:24;5.47;;;5.07;;
50555;SDS011;36508;52.512;13.450;2023-05-13T14:39:56;5.00;;;4.10;;
50555;SDS011;36508;52.512;13.450;2023-05-13T14:42:22;4.20;;;4.00;;
50555;SDS011;36508;52.512;13.450;2023-05-13T14:44:50;10.67;;;4.73;;
50555;SDS011;36508;52.512;13.450;2023-05-13T14:47:16;5.07;;;4.77;;
50555;SDS011;36508;52.512;13.450;2023-05-13T14:49:43;6.77;;;4.87;;
50555;SDS011;36508;52.512;13.450;2023-05-13T14:52:09;4.80;;;4.40;;
50555;SDS011;36508;52.512;13.450;2023-05-13T14:54:34;3.73;;;3.47;;
50555;SDS011;36508;52.512;13.450;2023-05-13T14:57:02;7.70;;;5.07;;
50555;SDS011;36508;52.512;13.450;2023-05-13T14:59:29;4.40;;;4.10;;
50555;SDS011;36508;52.512;13.450;2023-05-13T15:01:56;4.70;;;4.40;;
50555;SDS011;36508;52.512;13.450;2023-05-13T15:04:22;5.40;;;5.00;;
50555;SDS011;36508;52.512;13.450;2023-05-13T15:06:47;7.37;;;4.87;;
50555;SDS011;36508;52.512;13.450;2023-05-13T15:09:14;4.63;;;4.23;;
50555;SDS011;36508;52.512;13.450;2023-05-13T15:11:40;3.47;;;3.20;;
50555;SDS011;36508;52.512;13.450;2023-05-13T15:14:06;5.37;;;5.03;;
50555;SDS011;36508;52.512;13.450;2023-05-13T15:16:31;5.97;;;3.77;;